createdAt,value
2022-07-29T00:00:07.639Z,14.46
2022-07-29T00:01:06.604Z,14.47
2022-07-29T00:02:06.586Z,14.52
2022-07-29T00:03:06.620Z,14.54
2022-07-29T00:04:06.628Z,14.55
2022-07-29T00:05:06.570Z,14.58
2022-07-29T00:06:06.533Z,14.58
2022-07-29T00:07:06.523Z,14.60
2022-07-29T00:08:10.711Z,14.60
2022-07-29T00:09:07.500Z,14.61
2022-07-29T00:10:06.492Z,14.62
2022-07-29T00:11:06.474Z,14.62
2022-07-29T00:12:06.453Z,14.64
2022-07-29T00:13:06.457Z,14.62
2022-07-29T00:14:06.433Z,14.62
2022-07-29T00:15:06.423Z,14.64
2022-07-29T00:16:06.456Z,14.65
2022-07-29T00:17:06.392Z,14.68
2022-07-29T00:18:06.381Z,14.68
2022-07-29T00:19:06.370Z,14.70
2022-07-29T00:20:06.363Z,14.69
2022-07-29T00:21:06.341Z,14.70
2022-07-29T00:22:06.332Z,14.70
2022-07-29T00:23:06.311Z,14.77
2022-07-29T00:24:06.301Z,14.81
2022-07-29T00:25:06.301Z,14.84
2022-07-29T00:26:06.272Z,14.88
2022-07-29T00:27:06.261Z,14.88
2022-07-29T00:28:06.251Z,14.88
2022-07-29T00:29:32.874Z,14.89
2022-07-29T00:30:07.233Z,14.92
2022-07-29T00:31:06.242Z,14.91
2022-07-29T00:32:06.203Z,14.89
2022-07-29T00:33:09.074Z,14.89
2022-07-29T00:34:06.172Z,14.91
2022-07-29T00:35:06.184Z,14.86
2022-07-29T00:36:06.140Z,14.84
2022-07-29T00:37:06.142Z,14.83
2022-07-29T00:38:06.111Z,14.78
2022-07-29T00:39:06.169Z,14.77
2022-07-29T00:40:06.243Z,14.75
2022-07-29T00:41:06.074Z,14.73
2022-07-29T00:42:06.065Z,14.70
2022-07-29T00:43:06.050Z,14.68
2022-07-29T00:44:06.030Z,14.64
2022-07-29T00:45:06.042Z,14.62
2022-07-29T00:46:06.006Z,14.58
2022-07-29T00:47:06.129Z,14.57
2022-07-29T00:48:05.980Z,14.55
2022-07-29T00:49:06.038Z,14.52
2022-07-29T00:50:05.968Z,14.50
2022-07-29T00:51:05.941Z,14.47
2022-07-29T00:52:05.933Z,14.46
2022-07-29T00:53:05.919Z,14.45
2022-07-29T00:54:05.906Z,14.43
2022-07-29T00:55:08.619Z,14.43
2022-07-29T00:56:05.870Z,14.42
2022-07-29T00:57:06.592Z,14.39
2022-07-29T00:58:05.860Z,14.37
2022-07-29T00:59:05.840Z,14.39
2022-07-29T01:00:05.829Z,14.37
2022-07-29T01:01:05.859Z,14.39
2022-07-29T01:02:05.938Z,14.39
2022-07-29T01:03:05.795Z,14.40
2022-07-29T01:04:05.770Z,14.42
2022-07-29T01:05:05.773Z,14.43
2022-07-29T01:06:05.738Z,14.43
2022-07-29T01:07:05.729Z,14.43
2022-07-29T01:08:05.720Z,14.46
2022-07-29T01:09:05.708Z,14.45
2022-07-29T01:10:05.704Z,14.45
2022-07-29T01:11:05.678Z,14.43
2022-07-29T01:12:05.658Z,14.46
2022-07-29T01:13:05.659Z,14.46
2022-07-29T01:14:05.638Z,14.50
2022-07-29T01:15:05.640Z,14.54
2022-07-29T01:16:05.636Z,14.55
2022-07-29T01:17:05.607Z,14.55
2022-07-29T01:18:05.587Z,14.58
2022-07-29T01:19:05.579Z,14.60
2022-07-29T01:20:05.571Z,14.62
2022-07-29T01:21:05.553Z,14.64
2022-07-29T01:22:05.528Z,14.68
2022-07-29T01:23:05.526Z,14.68
2022-07-29T01:24:05.508Z,14.69
2022-07-29T01:25:05.507Z,14.73
2022-07-29T01:26:05.895Z,14.73
2022-07-29T01:27:05.484Z,14.78
2022-07-29T01:28:05.457Z,14.80
2022-07-29T01:29:07.399Z,14.78
2022-07-29T01:30:05.563Z,14.83
2022-07-29T01:31:05.439Z,14.84
2022-07-29T01:32:05.450Z,14.84
2022-07-29T01:33:05.395Z,14.86
2022-07-29T01:34:05.388Z,14.86
2022-07-29T01:35:05.378Z,14.89
2022-07-29T01:36:05.349Z,14.88
2022-07-29T01:37:05.354Z,14.89
2022-07-29T01:38:05.327Z,14.91
2022-07-29T01:39:05.316Z,14.91
2022-07-29T01:40:05.318Z,14.92
2022-07-29T01:41:05.291Z,14.92
2022-07-29T01:42:05.277Z,14.92
2022-07-29T01:43:12.781Z,14.92
2022-07-29T01:44:05.251Z,14.95
2022-07-29T01:45:05.258Z,14.95
2022-07-29T01:46:05.280Z,14.95
2022-07-29T01:47:05.229Z,14.98
2022-07-29T01:48:12.724Z,14.96
2022-07-29T01:49:05.230Z,14.99
2022-07-29T01:50:05.179Z,14.98
2022-07-29T01:51:05.165Z,14.99
2022-07-29T01:52:05.145Z,14.98
2022-07-29T01:53:05.126Z,14.99
2022-07-29T01:54:05.114Z,15.01
2022-07-29T01:55:05.105Z,15.02
2022-07-29T01:56:05.105Z,15.03
2022-07-29T01:57:05.090Z,15.02
2022-07-29T01:58:05.063Z,15.02
2022-07-29T01:59:05.055Z,15.06
2022-07-29T02:00:05.035Z,15.06
2022-07-29T02:01:05.037Z,15.03
2022-07-29T02:02:05.091Z,15.06
2022-07-29T02:03:04.996Z,15.07
2022-07-29T02:04:04.985Z,15.06
2022-07-29T02:05:05.036Z,15.07
2022-07-29T02:06:04.975Z,15.03
2022-07-29T02:07:04.946Z,15.07
2022-07-29T02:08:04.934Z,15.03
2022-07-29T02:09:04.915Z,15.06
2022-07-29T02:10:04.904Z,15.03
2022-07-29T02:11:04.905Z,15.06
2022-07-29T02:12:04.877Z,15.07
2022-07-29T02:13:04.865Z,15.07
2022-07-29T02:14:04.845Z,15.09
2022-07-29T02:15:04.844Z,15.07
2022-07-29T02:16:04.889Z,15.09
2022-07-29T02:17:04.815Z,15.10
2022-07-29T02:18:04.803Z,15.11
2022-07-29T02:19:04.792Z,15.09
2022-07-29T02:20:04.774Z,15.10
2022-07-29T02:21:04.775Z,15.10
2022-07-29T02:22:04.751Z,15.09
2022-07-29T02:23:04.725Z,15.09
2022-07-29T02:24:04.724Z,15.09
2022-07-29T02:25:04.704Z,15.06
2022-07-29T02:26:04.720Z,15.03
2022-07-29T02:27:04.687Z,15.06
2022-07-29T02:28:04.675Z,15.03
2022-07-29T02:29:04.652Z,15.06
2022-07-29T02:30:04.644Z,15.01
2022-07-29T02:31:04.709Z,14.99
2022-07-29T02:32:04.614Z,14.99
2022-07-29T02:33:05.953Z,14.98
2022-07-29T02:34:05.552Z,14.96
2022-07-29T02:35:05.494Z,14.98
2022-07-29T02:36:05.535Z,14.95
2022-07-29T02:37:05.936Z,14.95
2022-07-29T02:38:05.395Z,14.92
2022-07-29T02:39:05.637Z,14.92
2022-07-29T02:40:05.333Z,14.94
2022-07-29T02:41:05.679Z,14.91
2022-07-29T02:42:05.715Z,14.89
2022-07-29T02:43:05.542Z,14.89
2022-07-29T02:44:05.727Z,14.89
2022-07-29T02:45:06.236Z,14.89
2022-07-29T02:46:04.484Z,14.86
2022-07-29T02:47:06.787Z,14.88
2022-07-29T02:48:05.264Z,14.88
2022-07-29T02:49:05.547Z,14.89
2022-07-29T02:50:05.771Z,14.88
2022-07-29T02:51:04.974Z,14.88
2022-07-29T02:52:05.173Z,14.88
2022-07-29T02:53:05.782Z,14.88
2022-07-29T02:54:05.054Z,14.88
2022-07-29T02:55:05.691Z,14.88
2022-07-29T02:56:05.056Z,14.86
2022-07-29T02:57:05.562Z,14.84
2022-07-29T02:58:05.708Z,14.84
2022-07-29T02:59:05.630Z,14.84
2022-07-29T03:00:05.564Z,14.84
2022-07-29T03:01:06.555Z,14.86
2022-07-29T03:02:05.202Z,14.84
2022-07-29T03:03:05.594Z,14.84
2022-07-29T03:04:05.474Z,14.84
2022-07-29T03:05:05.674Z,14.84
2022-07-29T03:06:05.443Z,14.86
2022-07-29T03:07:05.362Z,14.86
2022-07-29T03:08:04.147Z,14.84
2022-07-29T03:09:06.653Z,14.86
2022-07-29T03:10:05.124Z,14.88
2022-07-29T03:11:05.113Z,14.89
2022-07-29T03:12:04.092Z,14.89
2022-07-29T03:13:04.072Z,14.91
2022-07-29T03:14:04.073Z,14.89
2022-07-29T03:15:04.053Z,14.91
2022-07-29T03:16:04.084Z,14.89
2022-07-29T03:17:04.033Z,14.92
2022-07-29T03:18:04.017Z,14.91
2022-07-29T03:19:04.011Z,14.91
2022-07-29T03:20:03.993Z,14.91
2022-07-29T03:21:03.982Z,14.91
2022-07-29T03:22:03.963Z,14.91
2022-07-29T03:23:03.952Z,14.92
2022-07-29T03:24:09.800Z,14.92
2022-07-29T03:25:04.921Z,14.92
2022-07-29T03:26:03.929Z,14.94
2022-07-29T03:27:03.902Z,14.94
2022-07-29T03:28:03.881Z,14.92
2022-07-29T03:29:03.860Z,14.91
2022-07-29T03:30:03.869Z,14.92
2022-07-29T03:31:03.904Z,14.92
2022-07-29T03:32:04.310Z,14.92
2022-07-29T03:33:03.818Z,14.94
2022-07-29T03:34:04.808Z,14.94
2022-07-29T03:35:03.793Z,14.94
2022-07-29T03:36:03.809Z,14.94
2022-07-29T03:37:03.770Z,14.94
2022-07-29T03:38:03.750Z,14.94
2022-07-29T03:39:03.742Z,14.94
2022-07-29T03:40:03.729Z,14.94
2022-07-29T03:41:03.727Z,14.94
2022-07-29T03:42:03.709Z,14.95
2022-07-29T03:43:03.716Z,14.94
2022-07-29T03:44:03.707Z,14.96
2022-07-29T03:45:03.661Z,14.96
2022-07-29T03:46:03.706Z,14.98
2022-07-29T03:47:03.649Z,14.98
2022-07-29T03:48:03.620Z,14.99
2022-07-29T03:49:03.670Z,14.98
2022-07-29T03:50:03.600Z,14.99
2022-07-29T03:51:03.589Z,15.01
2022-07-29T03:52:03.573Z,15.01
2022-07-29T03:53:03.549Z,15.01
2022-07-29T03:54:14.067Z,15.02
2022-07-29T03:55:04.529Z,15.03
2022-07-29T03:56:03.528Z,15.03
2022-07-29T03:57:03.498Z,15.03
2022-07-29T03:58:03.497Z,15.06
2022-07-29T03:59:03.482Z,15.03
2022-07-29T04:00:03.487Z,15.06
2022-07-29T04:01:03.460Z,15.03
2022-07-29T04:02:03.490Z,15.03
2022-07-29T04:03:03.503Z,15.03
2022-07-29T04:04:03.511Z,15.03
2022-07-29T04:05:03.406Z,15.02
2022-07-29T04:06:03.423Z,15.06
2022-07-29T04:07:03.371Z,15.03
2022-07-29T04:08:03.389Z,15.07
2022-07-29T04:09:03.383Z,15.06
2022-07-29T04:10:03.338Z,15.06
2022-07-29T04:11:03.328Z,15.06
2022-07-29T04:12:04.441Z,15.06
2022-07-29T04:13:03.334Z,15.07
2022-07-29T04:14:03.286Z,15.07
2022-07-29T04:15:03.269Z,15.09
2022-07-29T04:16:03.378Z,15.07
2022-07-29T04:17:03.257Z,15.06
2022-07-29T04:18:03.236Z,15.07
2022-07-29T04:19:03.221Z,15.07
2022-07-29T04:20:03.207Z,15.07
2022-07-29T04:21:03.198Z,15.09
2022-07-29T04:22:03.177Z,15.10
2022-07-29T04:23:03.166Z,15.11
2022-07-29T04:24:03.159Z,15.11
2022-07-29T04:25:04.145Z,15.11
2022-07-29T04:26:03.146Z,15.11
2022-07-29T04:27:03.117Z,15.13
2022-07-29T04:28:03.109Z,15.13
2022-07-29T04:29:03.098Z,15.13
2022-07-29T04:30:03.078Z,15.13
2022-07-29T04:31:03.134Z,15.14
2022-07-29T04:32:03.066Z,15.14
2022-07-29T04:33:03.047Z,15.17
2022-07-29T04:34:03.028Z,15.19
2022-07-29T04:35:03.007Z,15.20
2022-07-29T04:36:03.007Z,15.23
2022-07-29T04:37:02.986Z,15.27
2022-07-29T04:38:02.976Z,15.25
2022-07-29T04:39:02.957Z,15.27
2022-07-29T04:40:02.946Z,15.28
2022-07-29T04:41:02.946Z,15.29
2022-07-29T04:42:02.918Z,15.29
2022-07-29T04:43:05.750Z,15.32
2022-07-29T04:44:02.897Z,15.36
2022-07-29T04:45:02.878Z,15.39
2022-07-29T04:46:02.981Z,15.43
2022-07-29T04:47:02.854Z,15.44
2022-07-29T04:48:02.849Z,15.44
2022-07-29T04:49:02.905Z,15.53
2022-07-29T04:50:02.816Z,15.54
2022-07-29T04:51:02.845Z,15.57
2022-07-29T04:52:02.796Z,15.62
2022-07-29T04:53:02.766Z,15.62
2022-07-29T04:54:02.767Z,15.64
2022-07-29T04:55:02.747Z,15.65
2022-07-29T04:56:02.746Z,15.67
2022-07-29T04:57:02.746Z,15.67
2022-07-29T04:58:02.706Z,15.65
2022-07-29T04:59:02.690Z,15.68
2022-07-29T05:00:02.688Z,15.69
2022-07-29T05:01:02.701Z,15.71
2022-07-29T05:02:02.690Z,15.75
2022-07-29T05:03:02.688Z,15.78
2022-07-29T05:04:02.634Z,15.82
2022-07-29T05:05:02.631Z,15.82
2022-07-29T05:06:02.614Z,15.84
2022-07-29T05:07:02.585Z,15.89
2022-07-29T05:08:02.580Z,15.96
2022-07-29T05:09:02.564Z,15.96
2022-07-29T05:10:02.554Z,16.01
2022-07-29T05:11:11.306Z,16.01
2022-07-29T05:12:03.529Z,16.02
2022-07-29T05:13:02.505Z,16.02
2022-07-29T05:14:02.504Z,16.04
2022-07-29T05:15:02.484Z,16.05
2022-07-29T05:16:02.554Z,16.02
2022-07-29T05:17:02.457Z,16.04
2022-07-29T05:18:02.446Z,16.07
2022-07-29T05:19:02.435Z,16.09
2022-07-29T05:20:02.416Z,16.11
2022-07-29T05:21:02.415Z,16.12
2022-07-29T05:22:02.395Z,16.15
2022-07-29T05:23:02.386Z,16.17
2022-07-29T05:24:02.365Z,16.20
2022-07-29T05:25:08.500Z,16.20
2022-07-29T05:26:03.359Z,16.27
2022-07-29T05:27:02.326Z,16.33
2022-07-29T05:28:02.314Z,16.43
2022-07-29T05:29:02.323Z,16.45
2022-07-29T05:30:02.285Z,16.56
2022-07-29T05:31:02.374Z,16.61
2022-07-29T05:32:02.264Z,16.64
2022-07-29T05:33:02.252Z,16.64
2022-07-29T05:34:02.243Z,16.75
2022-07-29T05:35:02.217Z,16.81
2022-07-29T05:36:02.225Z,16.85
2022-07-29T05:37:02.194Z,16.89
2022-07-29T05:38:02.182Z,16.93
2022-07-29T05:39:02.163Z,16.96
2022-07-29T05:40:02.199Z,17.04
2022-07-29T05:41:02.146Z,17.03
2022-07-29T05:42:02.134Z,17.08
2022-07-29T05:43:02.112Z,17.11
2022-07-29T05:44:02.112Z,17.14
2022-07-29T05:45:02.084Z,17.12
2022-07-29T05:46:02.216Z,17.15
2022-07-29T05:47:02.054Z,17.18
2022-07-29T05:48:02.062Z,17.21
2022-07-29T05:49:02.114Z,17.23
2022-07-29T05:50:02.023Z,17.23
2022-07-29T05:51:02.023Z,17.30
2022-07-29T05:52:02.011Z,17.33
2022-07-29T05:53:01.985Z,17.37
2022-07-29T05:54:02.974Z,17.38
2022-07-29T05:55:01.983Z,17.41
2022-07-29T05:56:01.961Z,17.43
2022-07-29T05:57:01.932Z,17.49
2022-07-29T05:58:01.924Z,17.51
2022-07-29T05:59:01.904Z,17.58
2022-07-29T06:00:01.899Z,17.63
2022-07-29T06:01:02.014Z,17.72
2022-07-29T06:02:01.966Z,17.79
2022-07-29T06:03:01.852Z,17.86
2022-07-29T06:04:01.901Z,17.90
2022-07-29T06:05:01.875Z,17.93
2022-07-29T06:06:01.833Z,18.02
2022-07-29T06:07:01.813Z,18.10
2022-07-29T06:08:01.785Z,18.11
2022-07-29T06:09:01.774Z,18.14
2022-07-29T06:10:02.764Z,18.11
2022-07-29T06:11:01.762Z,18.14
2022-07-29T06:12:01.762Z,18.11
2022-07-29T06:13:01.718Z,18.08
2022-07-29T06:14:01.706Z,18.11
2022-07-29T06:15:01.693Z,18.14
2022-07-29T06:16:01.748Z,18.12
2022-07-29T06:17:01.667Z,18.14
2022-07-29T06:18:02.258Z,18.27
2022-07-29T06:19:01.663Z,18.42
2022-07-29T06:20:01.623Z,18.55
2022-07-29T06:21:01.623Z,18.60
2022-07-29T06:22:01.613Z,18.66
2022-07-29T06:23:01.598Z,18.72
2022-07-29T06:24:01.585Z,18.70
2022-07-29T06:25:01.568Z,18.76
2022-07-29T06:26:01.633Z,18.76
2022-07-29T06:27:01.554Z,18.84
2022-07-29T06:28:01.525Z,18.88
2022-07-29T06:29:01.515Z,18.91
2022-07-29T06:30:01.502Z,18.95
2022-07-29T06:31:01.544Z,19.06
2022-07-29T06:32:01.485Z,19.11
2022-07-29T06:33:01.465Z,19.14
2022-07-29T06:34:01.454Z,19.21
2022-07-29T06:35:24.553Z,19.29
2022-07-29T06:36:02.446Z,19.36
2022-07-29T06:37:01.403Z,19.39
2022-07-29T06:38:01.395Z,19.39
2022-07-29T06:39:01.383Z,19.47
2022-07-29T06:40:01.372Z,19.54
2022-07-29T06:41:01.379Z,19.51
2022-07-29T06:42:01.371Z,19.46
2022-07-29T06:43:01.342Z,19.46
2022-07-29T06:44:01.314Z,19.44
2022-07-29T06:45:03.907Z,19.44
2022-07-29T06:46:01.375Z,19.50
2022-07-29T06:47:01.274Z,19.50
2022-07-29T06:48:01.271Z,19.33
2022-07-29T06:49:01.277Z,19.28
2022-07-29T06:50:01.243Z,19.23
2022-07-29T06:51:01.242Z,19.19
2022-07-29T06:52:01.211Z,19.06
2022-07-29T06:53:01.215Z,19.00
2022-07-29T06:54:02.635Z,19.04
2022-07-29T06:55:02.174Z,19.11
2022-07-29T06:56:01.172Z,19.10
2022-07-29T06:57:01.145Z,19.13
2022-07-29T06:58:01.140Z,19.10
2022-07-29T06:59:01.413Z,19.02
2022-07-29T07:00:01.125Z,18.95
2022-07-29T07:01:01.180Z,19.02
2022-07-29T07:02:01.108Z,19.10
2022-07-29T07:03:01.073Z,19.21
2022-07-29T07:04:01.053Z,19.26
2022-07-29T07:05:01.034Z,19.29
2022-07-29T07:06:01.033Z,19.25
2022-07-29T07:07:01.014Z,19.33
2022-07-29T07:08:01.004Z,19.50
2022-07-29T07:09:00.995Z,19.62
2022-07-29T07:10:00.986Z,19.80
2022-07-29T07:11:00.976Z,19.96
2022-07-29T07:12:00.945Z,20.20
2022-07-29T07:13:00.957Z,20.39
2022-07-29T07:14:03.836Z,20.58
2022-07-29T07:15:00.914Z,20.79
2022-07-29T07:16:00.904Z,20.95
2022-07-29T07:17:00.920Z,21.12
2022-07-29T07:18:00.874Z,21.19
2022-07-29T07:19:00.858Z,21.24
2022-07-29T07:20:00.837Z,21.32
2022-07-29T07:21:00.854Z,21.42
2022-07-29T07:22:00.814Z,21.43
2022-07-29T07:23:00.820Z,21.56
2022-07-29T07:24:00.787Z,21.71
2022-07-29T07:25:00.784Z,21.77
2022-07-29T07:26:00.775Z,21.83
2022-07-29T07:27:00.755Z,21.91
2022-07-29T07:28:00.734Z,21.84
2022-07-29T07:29:00.744Z,21.90
2022-07-29T07:30:00.705Z,21.82
2022-07-29T07:31:00.718Z,21.80
2022-07-29T07:32:01.367Z,21.49
2022-07-29T07:33:00.745Z,21.31
2022-07-29T07:34:00.664Z,21.25
2022-07-29T07:35:00.662Z,21.24
2022-07-29T07:36:00.645Z,21.19
2022-07-29T07:37:00.627Z,20.99
2022-07-29T07:38:00.605Z,20.97
2022-07-29T07:39:00.605Z,20.97
2022-07-29T07:40:00.585Z,21.10
2022-07-29T07:41:00.589Z,21.16
2022-07-29T07:42:00.564Z,21.14
2022-07-29T07:43:00.658Z,21.21
2022-07-29T07:44:11.819Z,21.42
2022-07-29T07:45:13.640Z,21.64
2022-07-29T07:46:01.536Z,21.86
2022-07-29T07:47:03.891Z,22.12
2022-07-29T07:48:01.479Z,22.39
2022-07-29T07:49:00.510Z,22.64
2022-07-29T07:50:00.450Z,22.79
2022-07-29T07:51:00.457Z,22.82
2022-07-29T07:52:00.420Z,22.88
2022-07-29T07:53:00.421Z,22.80
2022-07-29T07:54:00.422Z,22.80
2022-07-29T07:55:00.387Z,22.70
2022-07-29T07:56:10.447Z,22.79
2022-07-29T07:57:01.391Z,23.07
2022-07-29T07:58:00.382Z,23.25
2022-07-29T07:59:00.361Z,23.69
2022-07-29T08:00:00.328Z,24.10
2022-07-29T08:01:00.428Z,24.42
2022-07-29T08:02:00.383Z,24.45
2022-07-29T08:03:00.316Z,24.47
2022-07-29T08:04:00.270Z,24.34
2022-07-29T08:05:00.270Z,24.25
2022-07-29T08:06:00.260Z,24.20
2022-07-29T08:07:00.251Z,23.85
2022-07-29T08:08:00.222Z,23.61
2022-07-29T08:09:26.610Z,23.57
2022-07-29T08:10:01.190Z,23.55
2022-07-29T08:11:03.259Z,23.61
2022-07-29T08:12:01.176Z,23.60
2022-07-29T08:13:00.177Z,23.58
2022-07-29T08:14:00.141Z,23.54
2022-07-29T08:15:00.159Z,23.53
2022-07-29T08:16:00.111Z,23.43
2022-07-29T08:17:00.164Z,23.43
2022-07-29T08:18:00.985Z,23.50
2022-07-29T08:19:00.097Z,23.48
2022-07-29T08:20:00.072Z,23.54
2022-07-29T08:21:00.108Z,23.60
2022-07-29T08:22:00.040Z,23.57
2022-07-29T08:23:00.030Z,23.57
2022-07-29T08:24:05.312Z,23.60
2022-07-29T08:25:01.012Z,23.33
2022-07-29T08:25:59.990Z,23.20
2022-07-29T08:26:59.974Z,23.23
2022-07-29T08:27:59.990Z,23.40
2022-07-29T08:28:59.944Z,23.55
2022-07-29T08:30:00.954Z,23.69
2022-07-29T08:30:59.933Z,23.83
2022-07-29T08:31:59.955Z,23.98
2022-07-29T08:32:59.942Z,24.06
2022-07-29T08:34:00.987Z,24.16
2022-07-29T08:35:00.322Z,24.28
2022-07-29T08:35:59.855Z,24.45
2022-07-29T08:36:59.844Z,24.64
2022-07-29T08:37:59.832Z,24.87
2022-07-29T08:38:59.834Z,24.96
2022-07-29T08:39:59.823Z,25.03
2022-07-29T08:40:59.793Z,25.09
2022-07-29T08:41:59.892Z,25.13
2022-07-29T08:42:59.775Z,25.20
2022-07-29T08:43:59.774Z,25.51
2022-07-29T08:44:59.784Z,25.69
2022-07-29T08:45:59.793Z,25.76
2022-07-29T08:46:59.715Z,25.79
2022-07-29T08:47:59.799Z,25.97
2022-07-29T08:48:59.770Z,26.30
2022-07-29T08:49:59.709Z,26.51
2022-07-29T08:50:59.772Z,26.63
2022-07-29T08:51:59.860Z,26.67
2022-07-29T08:53:00.179Z,26.77
2022-07-29T08:53:59.619Z,26.88
2022-07-29T08:54:59.625Z,26.91
2022-07-29T08:55:59.598Z,26.95
2022-07-29T08:56:59.616Z,27.13
2022-07-29T08:57:59.606Z,26.94
2022-07-29T08:58:59.557Z,26.67
2022-07-29T09:00:02.498Z,26.48
2022-07-29T09:01:00.573Z,26.26
2022-07-29T09:01:59.682Z,26.13
2022-07-29T09:02:59.616Z,25.99
2022-07-29T09:03:59.584Z,25.91
2022-07-29T09:04:59.498Z,25.83
2022-07-29T09:05:59.478Z,25.72
2022-07-29T09:06:59.450Z,25.51
2022-07-29T09:07:59.547Z,25.46
2022-07-29T09:08:59.428Z,25.35
2022-07-29T09:09:59.407Z,25.40
2022-07-29T09:10:59.416Z,25.43
2022-07-29T09:11:59.379Z,25.55
2022-07-29T09:12:59.392Z,25.61
2022-07-29T09:13:59.358Z,25.67
2022-07-29T09:14:59.365Z,25.62
2022-07-29T09:15:59.426Z,25.57
2022-07-29T09:16:59.377Z,25.54
2022-07-29T09:17:59.323Z,25.51
2022-07-29T09:18:59.300Z,25.58
2022-07-29T09:19:59.289Z,25.58
2022-07-29T09:20:59.288Z,25.67
2022-07-29T09:21:59.260Z,25.79
2022-07-29T09:22:59.276Z,25.99
2022-07-29T09:23:59.230Z,26.29
2022-07-29T09:24:59.229Z,26.47
2022-07-29T09:25:59.220Z,26.52
2022-07-29T09:26:59.199Z,26.54
2022-07-29T09:27:59.181Z,26.48
2022-07-29T09:28:59.178Z,26.51
2022-07-29T09:29:59.162Z,26.54
2022-07-29T09:30:59.219Z,26.51
2022-07-29T09:31:59.185Z,26.44
2022-07-29T09:32:59.173Z,26.29
2022-07-29T09:33:59.101Z,26.29
2022-07-29T09:34:59.100Z,26.13
2022-07-29T09:35:59.100Z,26.07
2022-07-29T09:36:59.199Z,26.02
2022-07-29T09:37:59.098Z,25.97
2022-07-29T09:38:59.052Z,25.92
2022-07-29T09:39:59.032Z,25.95
2022-07-29T09:41:04.624Z,26.06
2022-07-29T09:42:00.002Z,26.33
2022-07-29T09:42:59.013Z,26.76
2022-07-29T09:43:58.991Z,27.14
2022-07-29T09:44:58.971Z,27.37
2022-07-29T09:45:58.971Z,27.59
2022-07-29T09:46:59.275Z,27.62
2022-07-29T09:47:58.944Z,27.54
2022-07-29T09:48:58.984Z,27.50
2022-07-29T09:49:58.917Z,27.46
2022-07-29T09:50:58.912Z,27.51
2022-07-29T09:51:58.882Z,27.74
2022-07-29T09:52:58.937Z,27.81
2022-07-29T09:53:58.853Z,27.87
2022-07-29T09:54:58.842Z,27.75
2022-07-29T09:55:58.842Z,27.69
2022-07-29T09:56:58.819Z,27.77
2022-07-29T09:57:58.851Z,27.82
2022-07-29T09:58:58.822Z,27.93
2022-07-29T09:59:58.774Z,28.14
2022-07-29T10:00:58.826Z,28.09
2022-07-29T10:01:59.123Z,28.12
2022-07-29T10:02:58.785Z,28.36
2022-07-29T10:03:58.725Z,28.62
2022-07-29T10:04:58.725Z,28.85
2022-07-29T10:05:58.714Z,29.00
2022-07-29T10:07:03.760Z,28.76
2022-07-29T10:07:59.675Z,28.49
2022-07-29T10:08:58.666Z,28.54
2022-07-29T10:09:58.657Z,28.59
2022-07-29T10:10:58.668Z,28.64
2022-07-29T10:11:58.738Z,28.81
2022-07-29T10:13:01.776Z,28.86
2022-07-29T10:13:59.613Z,28.88
2022-07-29T10:14:58.592Z,28.81
2022-07-29T10:15:58.618Z,28.55
2022-07-29T10:16:58.566Z,28.37
2022-07-29T10:17:58.548Z,28.39
2022-07-29T10:18:58.539Z,28.51
2022-07-29T10:19:58.536Z,28.56
2022-07-29T10:20:58.527Z,28.54
2022-07-29T10:21:58.551Z,28.40
2022-07-29T10:22:58.490Z,28.09
2022-07-29T10:23:59.558Z,27.70
2022-07-29T10:24:58.468Z,27.57
2022-07-29T10:25:58.460Z,27.47
2022-07-29T10:26:58.447Z,27.32
2022-07-29T10:27:58.449Z,27.24
2022-07-29T10:28:58.409Z,27.24
2022-07-29T10:30:00.289Z,27.22
2022-07-29T10:30:58.434Z,27.29
2022-07-29T10:31:58.736Z,27.43
2022-07-29T10:32:58.360Z,27.44
2022-07-29T10:33:58.354Z,27.41
2022-07-29T10:34:58.330Z,27.51
2022-07-29T10:35:58.331Z,27.59
2022-07-29T10:36:58.330Z,27.63
2022-07-29T10:37:58.300Z,27.47
2022-07-29T10:38:58.279Z,27.40
2022-07-29T10:39:58.282Z,27.41
2022-07-29T10:40:58.270Z,27.32
2022-07-29T10:41:58.675Z,27.24
2022-07-29T10:42:58.233Z,27.22
2022-07-29T10:43:58.210Z,27.24
2022-07-29T10:44:58.212Z,27.22
2022-07-29T10:45:58.204Z,27.17
2022-07-29T10:46:58.258Z,27.03
2022-07-29T10:47:58.170Z,26.88
2022-07-29T10:48:58.200Z,26.92
2022-07-29T10:49:58.170Z,27.02
2022-07-29T10:50:58.154Z,27.09
2022-07-29T10:51:58.562Z,27.12
2022-07-29T10:52:58.102Z,27.04
2022-07-29T10:53:58.091Z,26.94
2022-07-29T10:54:58.070Z,26.94
2022-07-29T10:55:58.083Z,26.92
2022-07-29T10:56:58.051Z,26.88
2022-07-29T10:57:58.041Z,26.85
2022-07-29T10:58:58.022Z,26.85
2022-07-29T10:59:58.012Z,26.95
2022-07-29T11:00:58.009Z,27.00
2022-07-29T11:02:27.786Z,27.06
2022-07-29T11:02:59.048Z,27.02
2022-07-29T11:03:57.954Z,27.06
2022-07-29T11:04:57.943Z,27.14
2022-07-29T11:05:59.724Z,27.21
2022-07-29T11:06:57.923Z,27.27
2022-07-29T11:07:57.914Z,27.21
2022-07-29T11:08:57.965Z,27.19
2022-07-29T11:09:57.881Z,27.17
2022-07-29T11:10:57.882Z,27.09
2022-07-29T11:11:58.370Z,27.03
2022-07-29T11:12:57.835Z,27.04
2022-07-29T11:13:57.834Z,27.02
2022-07-29T11:14:57.981Z,26.99
2022-07-29T11:15:57.871Z,26.95
2022-07-29T11:16:57.805Z,27.03
2022-07-29T11:17:59.515Z,27.14
2022-07-29T11:18:57.778Z,27.21
2022-07-29T11:19:57.760Z,27.31
2022-07-29T11:20:57.772Z,27.37
2022-07-29T11:21:58.475Z,27.49
2022-07-29T11:22:57.735Z,27.49
2022-07-29T11:23:57.698Z,27.55
2022-07-29T11:24:57.676Z,27.62
2022-07-29T11:25:57.688Z,27.65
2022-07-29T11:27:00.637Z,27.69
2022-07-29T11:27:57.649Z,27.79
2022-07-29T11:28:57.625Z,27.74
2022-07-29T11:29:58.738Z,27.62
2022-07-29T11:30:57.851Z,27.51
2022-07-29T11:31:57.773Z,27.60
2022-07-29T11:32:57.580Z,27.69
2022-07-29T11:33:58.604Z,27.72
2022-07-29T11:34:57.626Z,27.75
2022-07-29T11:36:00.747Z,27.77
2022-07-29T11:36:58.695Z,27.79
2022-07-29T11:37:57.856Z,27.79
2022-07-29T11:38:57.497Z,27.84
2022-07-29T11:40:58.488Z,27.90
2022-07-29T11:42:01.784Z,27.93
2022-07-29T11:42:58.447Z,27.85
2022-07-29T11:43:57.447Z,27.85
2022-07-29T11:44:57.430Z,27.90
2022-07-29T11:45:57.416Z,27.96
2022-07-29T11:46:57.448Z,27.90
2022-07-29T11:48:01.978Z,27.87
2022-07-29T11:48:58.393Z,27.84
2022-07-29T11:49:57.369Z,27.82
2022-07-29T11:50:58.332Z,27.87
2022-07-29T11:51:57.562Z,27.85
2022-07-29T11:52:57.319Z,27.82
2022-07-29T11:54:01.066Z,27.81
2022-07-29T11:55:00.736Z,27.77
2022-07-29T11:55:58.588Z,27.81
2022-07-29T11:56:57.289Z,27.81
2022-07-29T11:58:04.188Z,27.78
2022-07-29T11:58:58.240Z,27.85
2022-07-29T12:00:01.583Z,27.90
2022-07-29T12:00:58.222Z,27.97
2022-07-29T12:02:33.288Z,28.03
2022-07-29T12:02:58.236Z,28.02
2022-07-29T12:03:57.226Z,28.04
2022-07-29T12:04:57.161Z,27.99
2022-07-29T12:05:57.500Z,28.00
2022-07-29T12:07:00.639Z,27.90
2022-07-29T12:07:57.124Z,27.85
2022-07-29T12:08:57.113Z,27.90
2022-07-29T12:09:57.160Z,27.94
2022-07-29T12:10:57.093Z,27.82
2022-07-29T12:12:00.647Z,27.79
2022-07-29T12:12:58.058Z,27.87
2022-07-29T12:13:57.049Z,27.87
2022-07-29T12:14:57.031Z,27.92
2022-07-29T12:15:57.066Z,27.90
2022-07-29T12:16:57.043Z,27.97
2022-07-29T12:17:58.992Z,28.02
2022-07-29T12:18:57.972Z,28.06
2022-07-29T12:19:56.972Z,28.07
2022-07-29T12:20:56.953Z,28.14
2022-07-29T12:21:59.764Z,28.12
2022-07-29T12:22:56.924Z,28.12
2022-07-29T12:23:57.725Z,28.12
2022-07-29T12:25:29.980Z,28.21
2022-07-29T12:25:57.902Z,28.31
2022-07-29T12:26:56.897Z,28.39
2022-07-29T12:27:56.863Z,28.41
2022-07-29T12:28:56.854Z,28.37
2022-07-29T12:29:56.835Z,28.43
2022-07-29T12:30:56.827Z,28.37
2022-07-29T12:31:57.803Z,28.31
2022-07-29T12:32:56.795Z,28.29
2022-07-29T12:33:56.786Z,28.27
2022-07-29T12:34:56.766Z,28.21
2022-07-29T12:36:07.605Z,28.25
2022-07-29T12:36:57.755Z,28.31
2022-07-29T12:37:56.735Z,28.30
2022-07-29T12:38:56.718Z,28.30
2022-07-29T12:39:56.707Z,28.29
2022-07-29T12:40:56.695Z,28.27
2022-07-29T12:41:56.904Z,28.27
2022-07-29T12:42:57.668Z,28.18
2022-07-29T12:43:56.655Z,28.18
2022-07-29T12:44:56.642Z,28.19
2022-07-29T12:45:56.634Z,28.12
2022-07-29T12:46:56.686Z,28.17
2022-07-29T12:47:56.598Z,28.19
2022-07-29T12:48:56.682Z,28.22
2022-07-29T12:49:56.577Z,28.29
2022-07-29T12:50:56.559Z,28.39
2022-07-29T12:51:56.749Z,28.43
2022-07-29T12:52:56.528Z,28.51